Strona główna
METAR-TAF:

METAR-TAF

Lotnisko :

Port lotniczy Ämari

Ämari, Estonia

Szerokość geograficzna: 59-15-44N, Długość geograficzna: 24-13-07E, wysokość: 20 m

Aktualna obserwacja pogody

Raport powstał 2 godziny i 43 minut temu, godzina 15:50 UTC
Wiatr 4 kt od południowo-południowy zachód
Temperatura 18°C
Wilgotność 88%
Ciśnienie 1020 hPa
Widzialność 10 km lub więcej
przelotny w pobliże

METAR: EEEI 211550Z 20004KT 9999 VCSH NSC 18/16 Q1020 NOSIG

czas: 21:33 (18:33 UTC)

Prognoza

Raport powstał 1 godzina i 3 minut temu, godzina 17:30 UTC
Prognoza ważna od 21 godzina 18 UTC do 22 godzina 18 UTC
Wiatr 5 kt od zachód
Widzialność 10 km lub więcej
Mało chmury na wysokości 2000 ft
Prawdopodobieństwo 30% :
Przejściowo
od 22 godzina 03 UTC do 22 godzina 09 UTC
Mało chmury na wysokości 4000 ft, Cumulonimbus.
burza
Stopniowe zmiany
od 22 godzina 07 UTC do 22 godzina 09 UTC
Wiatr 12 kt od zachodnio-południowy zachód

TAF: EEEI 211730Z 2118/2218 27005KT 9999 FEW020 PROB30 TEMPO 2203/2209 TS FEW040CB BECMG 2207/2209 25012KT

Obserwacja i prognoza pogody dla ponad 4000 lotnisk (raport METAR i TAF).

Dostępne stacje oznaczono żółtymi i czerwonymi punktami na mapie.

Najedź kursorem aby zobaczyć nazwę stacji.

Kliknij aby zobaczyć obserwacje i prognozy pogody.

Aby zmienić mapę: kliknij na zielony przycisk z czarnym krzyżykiem, aby powiększyć; na zielony przycisk z myślnikiem, aby pomniejszyć; na zielone strzałki, aby przejść do map sąsiednich.


METAR-TAF: